Time;durP1;ratioP1;P1;durP2;ratioP2;P2;SDS_P1;SDS_P2;PMS_P1;PMS_P2;Temp;Humidity;BMP_temperature;BMP_pressure;BME280_temperature;BME280_humidity;BME280_pressure;Samples;Min_cycle;Max_cycle;Signal;HPM_P1;HPM_P2
2022/01/15 00:02:23;;;;;;;29.43;17.77;;;1.60;99.90;;;;;;5003447;28;20549;-54
2022/01/15 00:04:49;;;;;;;27.03;16.67;;;1.70;99.90;;;;;;5003866;28;20246;-54
2022/01/15 00:07:14;;;;;;;27.30;16.93;;;1.70;99.90;;;;;;5001768;28;20197;-57
2022/01/15 00:09:42;;;;;;;25.47;16.63;;;1.70;99.90;;;;;;4994761;28;20499;-62
2022/01/15 00:12:09;;;;;;;24.10;15.40;;;1.70;99.90;;;;;;4992124;28;20228;-57
2022/01/15 00:14:39;;;;;;;24.37;14.47;;;1.70;99.90;;;;;;4993793;28;20492;-59
2022/01/15 00:17:14;;;;;;;25.63;16.30;;;1.70;99.90;;;;;;4994596;28;20781;-59
2022/01/15 00:19:43;;;;;;;26.63;16.17;;;1.60;99.90;;;;;;4976595;28;20419;-59
2022/01/15 00:22:18;;;;;;;27.10;15.87;;;1.70;99.90;;;;;;4993868;28;20455;-58
2022/01/15 00:24:45;;;;;;;25.50;15.73;;;1.70;99.90;;;;;;4993430;28;20506;-54
2022/01/15 00:27:11;;;;;;;28.50;16.63;;;1.70;99.90;;;;;;4993071;28;20448;-60
2022/01/15 00:29:36;;;;;;;26.77;15.20;;;1.50;99.90;;;;;;4993129;28;20401;-59
2022/01/15 00:32:05;;;;;;;26.90;16.53;;;1.50;99.90;;;;;;4993594;28;20217;-54
2022/01/15 00:34:31;;;;;;;24.00;14.37;;;1.50;99.90;;;;;;4993090;28;20174;-58
2022/01/15 00:36:57;;;;;;;23.70;15.37;;;1.50;99.90;;;;;;4993696;28;20467;-56
2022/01/15 00:39:24;;;;;;;25.30;16.10;;;1.50;99.90;;;;;;4993828;28;20467;-57
2022/01/15 00:41:50;;;;;;;23.20;14.30;;;1.50;99.90;;;;;;4992493;28;20455;-56
2022/01/15 00:44:15;;;;;;;24.87;15.17;;;1.50;99.90;;;;;;4993296;28;20778;-55
2022/01/15 00:46:41;;;;;;;31.20;18.60;;;1.50;99.90;;;;;;4992466;28;20448;-58
2022/01/15 00:49:06;;;;;;;26.37;15.97;;;1.40;99.90;;;;;;4993675;28;20201;-56
2022/01/15 00:51:32;;;;;;;22.40;14.50;;;1.10;99.90;;;;;;4992387;28;20201;-53
2022/01/15 00:53:58;;;;;;;23.63;14.23;;;0.90;99.90;;;;;;4993111;28;20173;-55
2022/01/15 00:56:23;;;;;;;22.53;14.57;;;0.80;99.90;;;;;;4993069;28;20177;-56
2022/01/15 00:58:52;;;;;;;24.40;14.80;;;0.80;99.90;;;;;;4993605;28;20220;-56
2022/01/15 01:01:17;;;;;;;25.73;15.93;;;0.80;99.90;;;;;;4992909;28;20221;-60
2022/01/15 01:03:43;;;;;;;26.23;15.17;;;0.70;99.90;;;;;;4992474;28;20443;-57
2022/01/15 01:06:08;;;;;;;22.87;14.90;;;0.70;99.90;;;;;;4992933;28;20746;-60
2022/01/15 01:08:34;;;;;;;23.43;15.20;;;0.70;99.90;;;;;;4992698;28;20574;-57
2022/01/15 01:11:03;;;;;;;21.70;13.90;;;0.70;99.90;;;;;;4992347;28;20236;-58
2022/01/15 01:24:12;;;;;;;95.83;18.10;;;0.60;99.90;;;;;;4992895;28;20472;-58
2022/01/15 01:26:49;;;;;;;22.43;14.37;;;0.60;99.90;;;;;;4992734;28;20455;-54
2022/01/15 01:31:54;;;;;;;22.43;14.47;;;0.60;99.90;;;;;;4992265;28;20429;-60
2022/01/15 01:34:20;;;;;;;22.03;14.63;;;0.60;99.90;;;;;;4992681;28;20172;-60
2022/01/15 01:37:37;;;;;;;22.30;14.20;;;0.70;99.90;;;;;;4991963;28;20412;-58
2022/01/15 01:39:40;;;;;;;27.47;16.17;;;0.70;99.90;;;;;;4982101;28;20470;-59
2022/01/15 01:42:26;;;;;;;28.53;15.10;;;0.80;99.90;;;;;;4991532;28;20574;-57
2022/01/15 01:45:08;;;;;;;24.33;14.97;;;0.80;99.90;;;;;;4992319;28;20479;-61
2022/01/15 01:47:40;;;;;;;24.87;16.33;;;0.70;99.90;;;;;;4991951;28;20538;-58
2022/01/15 01:50:26;;;;;;;26.97;15.77;;;0.60;99.90;;;;;;4992409;28;20751;-57
2022/01/15 01:52:57;;;;;;;22.77;15.17;;;0.70;99.90;;;;;;4991988;28;20448;-56
2022/01/15 01:55:26;;;;;;;25.77;15.77;;;0.80;99.90;;;;;;4991629;28;20500;-58
2022/01/15 01:57:54;;;;;;;25.77;15.27;;;0.90;99.90;;;;;;4991423;28;20803;-58
2022/01/15 02:00:22;;;;;;;24.67;15.07;;;0.90;99.90;;;;;;4991734;28;20539;-59
2022/01/15 02:02:49;;;;;;;26.10;15.93;;;1.00;99.90;;;;;;4992603;28;20472;-60
2022/01/15 02:05:15;;;;;;;23.33;15.10;;;1.10;99.90;;;;;;4991782;28;20809;-58
2022/01/15 02:07:43;;;;;;;23.53;16.10;;;1.10;99.90;;;;;;4992294;28;20467;-57
2022/01/15 02:10:10;;;;;;;24.50;15.50;;;1.10;99.90;;;;;;4992091;28;20834;-57
2022/01/15 02:12:36;;;;;;;22.07;14.30;;;1.00;99.90;;;;;;4992556;28;20408;-58
2022/01/15 02:15:10;;;;;;;24.40;15.13;;;1.00;99.90;;;;;;4991891;28;20773;-58
2022/01/15 02:17:36;;;;;;;21.90;15.33;;;1.00;99.90;;;;;;4992356;28;20455;-57
2022/01/15 02:25:52;;;;;;;21.30;14.57;;;1.20;99.90;;;;;;4992398;28;20432;-59
2022/01/15 02:28:22;;;;;;;23.97;15.17;;;1.20;99.90;;;;;;4993437;28;20444;-58
2022/01/15 02:31:01;;;;;;;25.83;15.87;;;1.20;99.90;;;;;;4992564;28;20427;-58
2022/01/15 02:33:28;;;;;;;23.03;14.83;;;1.20;99.90;;;;;;4991993;28;20410;-57
2022/01/15 02:35:54;;;;;;;24.27;14.83;;;1.20;99.90;;;;;;4991911;28;20462;-60
2022/01/15 02:38:19;;;;;;;19.83;14.17;;;1.20;99.90;;;;;;4991836;28;20997;-61
2022/01/15 02:40:45;;;;;;;22.67;15.97;;;1.20;99.90;;;;;;4992126;28;20204;-59
2022/01/15 02:43:15;;;;;;;23.37;15.00;;;1.30;99.90;;;;;;4995292;28;20206;-56
2022/01/15 02:45:44;;;;;;;26.77;16.00;;;1.30;99.90;;;;;;4995720;28;20549;-58
2022/01/15 02:48:14;;;;;;;23.70;16.03;;;1.30;99.90;;;;;;4995127;28;20511;-58
2022/01/15 02:50:42;;;;;;;24.63;15.67;;;1.40;99.90;;;;;;4995815;28;20459;-58
2022/01/15 02:53:09;;;;;;;27.43;16.43;;;1.40;99.90;;;;;;4996142;28;20847;-58
2022/01/15 02:55:35;;;;;;;24.87;16.17;;;1.40;99.90;;;;;;4996295;28;20499;-59
2022/01/15 02:58:00;;;;;;;29.23;17.00;;;1.40;99.90;;;;;;4995587;28;20542;-56
2022/01/15 03:00:27;;;;;;;26.60;16.47;;;1.40;99.90;;;;;;4995311;28;20193;-59
2022/01/15 03:02:52;;;;;;;25.70;16.20;;;1.30;99.90;;;;;;4995745;28;20196;-58
2022/01/15 03:05:20;;;;;;;25.90;16.93;;;1.30;99.90;;;;;;4995220;28;20453;-59
2022/01/15 03:07:46;;;;;;;27.10;17.43;;;1.30;99.90;;;;;;4995598;28;20235;-58
2022/01/15 03:10:11;;;;;;;27.50;16.10;;;1.20;99.90;;;;;;4995221;28;20471;-60
2022/01/15 03:12:37;;;;;;;28.33;16.07;;;1.10;99.90;;;;;;4995729;28;20165;-57
2022/01/15 03:15:06;;;;;;;26.07;16.17;;;1.10;99.90;;;;;;4995378;28;20177;-57
2022/01/15 03:17:32;;;;;;;27.90;17.17;;;1.10;99.90;;;;;;4995046;28;20240;-55
2022/01/15 03:19:59;;;;;;;28.47;16.57;;;1.10;99.90;;;;;;4995169;28;20423;-58
2022/01/15 03:22:24;;;;;;;30.03;17.63;;;1.00;99.90;;;;;;4994848;28;20435;-57
2022/01/15 03:24:50;;;;;;;27.37;16.33;;;1.00;99.90;;;;;;4995117;28;20420;-56
2022/01/15 03:27:16;;;;;;;27.27;16.80;;;1.10;99.90;;;;;;4994948;28;20529;-59
2022/01/15 03:29:43;;;;;;;26.57;16.67;;;1.10;99.90;;;;;;4995300;28;20538;-58
2022/01/15 03:32:08;;;;;;;27.83;17.17;;;1.10;99.90;;;;;;4995405;28;20667;-56
2022/01/15 03:34:34;;;;;;;25.00;15.30;;;1.10;99.90;;;;;;4994703;28;20415;-58
2022/01/15 03:37:00;;;;;;;29.57;16.13;;;1.10;99.90;;;;;;4995207;28;20332;-58
2022/01/15 03:39:26;;;;;;;27.70;16.53;;;1.10;99.90;;;;;;4994802;28;20660;-60
2022/01/15 03:41:52;;;;;;;31.67;17.27;;;1.20;99.90;;;;;;4994911;28;20437;-60
2022/01/15 03:44:18;;;;;;;25.37;15.40;;;1.20;99.90;;;;;;4994547;28;20177;-61
2022/01/15 03:46:43;;;;;;;29.63;16.77;;;1.30;99.90;;;;;;4977501;28;20205;-58
2022/01/15 03:49:09;;;;;;;27.13;16.43;;;1.20;99.90;;;;;;4994583;28;20180;-58
2022/01/15 03:51:34;;;;;;;27.50;15.90;;;1.20;99.90;;;;;;4994892;28;20336;-60
2022/01/15 03:54:00;;;;;;;24.00;15.80;;;1.20;99.90;;;;;;4994322;28;20220;-57
2022/01/15 03:56:25;;;;;;;25.30;16.03;;;1.10;99.90;;;;;;4994581;28;20181;-56
2022/01/15 03:58:51;;;;;;;26.20;15.73;;;1.20;99.90;;;;;;4994899;28;20177;-59
2022/01/15 04:01:16;;;;;;;26.13;15.50;;;1.10;99.90;;;;;;4994430;28;20670;-58
2022/01/15 04:03:42;;;;;;;23.67;14.67;;;1.20;99.90;;;;;;4995139;28;20178;-59
2022/01/15 04:06:07;;;;;;;24.33;15.33;;;1.20;99.90;;;;;;4994014;28;20174;-60
2022/01/15 04:08:33;;;;;;;22.43;14.27;;;1.20;99.90;;;;;;4994987;28;20300;-57
2022/01/15 04:10:58;;;;;;;23.90;14.67;;;1.20;99.90;;;;;;4994308;28;20248;-60
2022/01/15 04:13:24;;;;;;;25.87;15.07;;;1.30;99.90;;;;;;4994473;28;20177;-59
2022/01/15 04:15:52;;;;;;;26.53;16.23;;;1.20;99.90;;;;;;4994511;28;20220;-57
2022/01/15 04:18:22;;;;;;;23.77;14.50;;;1.20;99.90;;;;;;4993937;28;20531;-57
2022/01/15 04:20:48;;;;;;;28.00;16.00;;;1.20;99.90;;;;;;4994228;28;20431;-57
2022/01/15 04:23:14;;;;;;;26.03;15.63;;;1.20;99.90;;;;;;4993988;28;20424;-58
2022/01/15 04:25:39;;;;;;;25.93;15.13;;;1.20;99.90;;;;;;4994039;28;20472;-58
2022/01/15 04:28:09;;;;;;;25.50;15.17;;;1.20;99.90;;;;;;4993718;28;20606;-59
2022/01/15 04:30:36;;;;;;;25.13;15.27;;;1.20;99.90;;;;;;4994124;28;20200;-60
2022/01/15 04:33:02;;;;;;;25.83;15.60;;;1.20;99.90;;;;;;4993931;28;20451;-56
2022/01/15 04:35:28;;;;;;;23.57;14.17;;;1.20;99.90;;;;;;4993644;28;20464;-58
2022/01/15 04:38:01;;;;;;;22.83;14.53;;;1.20;99.90;;;;;;4993969;28;20209;-61
2022/01/15 04:40:26;;;;;;;23.50;14.23;;;1.20;99.90;;;;;;4993839;28;20280;-58
2022/01/15 04:42:52;;;;;;;19.20;12.87;;;1.20;99.90;;;;;;4993853;28;20528;-60
2022/01/15 04:45:17;;;;;;;23.83;14.27;;;1.20;99.90;;;;;;4993299;28;20268;-58
2022/01/15 04:47:43;;;;;;;23.73;14.83;;;1.10;99.90;;;;;;4993781;28;20205;-57
2022/01/15 04:50:13;;;;;;;24.30;14.70;;;0.80;99.90;;;;;;4993308;28;20197;-58
2022/01/15 04:52:40;;;;;;;24.07;14.60;;;0.50;99.90;;;;;;4993727;28;20180;-58
2022/01/15 04:55:07;;;;;;;26.23;14.83;;;0.20;99.90;;;;;;4993411;28;20917;-58
2022/01/15 04:57:33;;;;;;;27.17;16.27;;;0.20;99.90;;;;;;4993284;28;20428;-60
2022/01/15 04:59:59;;;;;;;25.67;15.70;;;0.40;99.90;;;;;;4993877;28;20416;-58
2022/01/15 05:02:25;;;;;;;24.37;15.53;;;0.50;99.90;;;;;;4993428;28;20503;-57
2022/01/15 05:04:50;;;;;;;24.97;15.30;;;0.60;99.90;;;;;;4992768;28;20734;-57
2022/01/15 05:07:16;;;;;;;26.77;15.40;;;0.70;99.90;;;;;;4993218;28;20240;-57
2022/01/15 05:09:43;;;;;;;24.00;15.27;;;0.80;99.90;;;;;;4993433;28;20165;-57
2022/01/15 05:12:12;;;;;;;22.17;14.53;;;0.80;99.90;;;;;;4992889;28;20187;-56
2022/01/15 05:14:37;;;;;;;24.03;14.63;;;0.90;99.90;;;;;;4993086;28;20404;-56
2022/01/15 05:17:03;;;;;;;24.93;15.37;;;0.90;99.90;;;;;;4993291;28;20423;-56
2022/01/15 05:19:29;;;;;;;22.10;13.23;;;0.80;99.90;;;;;;4992870;28;20554;-58
2022/01/15 05:21:56;;;;;;;27.27;15.60;;;0.80;99.90;;;;;;4993086;28;20452;-57
2022/01/15 05:24:23;;;;;;;27.97;15.93;;;0.80;99.90;;;;;;4992502;28;20240;-58
2022/01/15 05:26:48;;;;;;;25.87;14.93;;;0.90;99.90;;;;;;4993118;28;20452;-58
2022/01/15 05:29:14;;;;;;;25.90;15.90;;;0.90;99.90;;;;;;4992692;28;20944;-58
2022/01/15 05:31:39;;;;;;;25.87;15.50;;;0.90;99.90;;;;;;4992977;28;20189;-55
2022/01/15 05:34:05;;;;;;;26.77;16.03;;;0.90;99.90;;;;;;4992601;28;20185;-56
2022/01/15 05:36:31;;;;;;;28.43;16.37;;;0.90;99.90;;;;;;4992685;28;20173;-56
2022/01/15 05:38:56;;;;;;;30.07;16.50;;;1.00;99.90;;;;;;4992338;28;20630;-57
2022/01/15 05:41:22;;;;;;;28.27;16.63;;;0.90;99.90;;;;;;4992517;28;20189;-58
2022/01/15 05:43:48;;;;;;;27.97;16.53;;;0.90;99.90;;;;;;4992854;28;20169;-57
2022/01/15 05:46:13;;;;;;;30.93;18.23;;;0.90;99.90;;;;;;4992200;28;20177;-57
2022/01/15 05:48:39;;;;;;;28.73;17.07;;;0.90;99.90;;;;;;4992649;28;20204;-58
2022/01/15 05:51:04;;;;;;;31.97;18.03;;;0.90;99.90;;;;;;4992305;28;20185;-55
2022/01/15 05:53:30;;;;;;;30.90;17.93;;;0.90;99.90;;;;;;4992781;28;20534;-59
2022/01/15 05:55:55;;;;;;;33.37;18.77;;;0.90;99.90;;;;;;4992376;28;20531;-57
2022/01/15 05:58:21;;;;;;;36.40;19.67;;;0.90;99.90;;;;;;4992308;28;20701;-58
2022/01/15 06:00:47;;;;;;;34.90;19.13;;;0.90;99.90;;;;;;4992554;28;20201;-57
2022/01/15 06:03:12;;;;;;;29.87;17.57;;;0.90;99.90;;;;;;5000684;28;20176;-57
2022/01/15 06:05:38;;;;;;;32.37;17.63;;;0.90;99.90;;;;;;5011766;28;20176;-57
2022/01/15 06:08:04;;;;;;;33.03;18.47;;;0.90;99.90;;;;;;4999826;28;20209;-55
2022/01/15 06:10:29;;;;;;;33.03;17.30;;;1.00;99.90;;;;;;4992497;28;20197;-57
2022/01/15 06:12:55;;;;;;;31.40;17.67;;;1.00;99.90;;;;;;4992451;28;20177;-58
2022/01/15 06:15:20;;;;;;;32.37;18.77;;;1.00;99.90;;;;;;4991631;28;20297;-58
2022/01/15 06:17:46;;;;;;;34.03;19.13;;;0.90;99.90;;;;;;4992314;28;20207;-56
2022/01/15 06:20:13;;;;;;;32.57;18.50;;;0.80;99.90;;;;;;5003276;28;20565;-58
2022/01/15 06:22:39;;;;;;;34.10;18.90;;;0.80;99.90;;;;;;5011936;28;20304;-58
2022/01/15 06:25:05;;;;;;;31.87;18.73;;;0.70;99.90;;;;;;4993680;28;20522;-56
2022/01/15 06:27:32;;;;;;;34.27;18.53;;;0.70;99.90;;;;;;5012159;28;20674;-55
2022/01/15 06:29:58;;;;;;;34.10;18.90;;;0.60;99.90;;;;;;5011841;28;20785;-58
2022/01/15 06:32:25;;;;;;;32.63;18.77;;;0.60;99.90;;;;;;5011429;28;20434;-55
2022/01/15 06:34:50;;;;;;;31.80;18.63;;;0.70;99.90;;;;;;5011548;28;20418;-57
2022/01/15 06:37:16;;;;;;;29.20;16.87;;;0.70;99.90;;;;;;5011520;28;20415;-59
2022/01/15 06:39:41;;;;;;;27.17;16.57;;;0.80;99.90;;;;;;5003488;28;20549;-58
2022/01/15 06:42:07;;;;;;;30.77;18.20;;;0.80;99.90;;;;;;4995170;28;20239;-59
2022/01/15 06:44:33;;;;;;;30.50;16.80;;;0.90;99.90;;;;;;4995896;28;20784;-56
2022/01/15 06:46:58;;;;;;;28.63;16.37;;;0.80;99.90;;;;;;4999255;28;20563;-57
2022/01/15 06:49:24;;;;;;;29.70;16.13;;;0.90;99.90;;;;;;4990785;28;20582;-59
2022/01/15 06:51:49;;;;;;;28.47;16.63;;;1.00;99.90;;;;;;5007527;28;20216;-54
2022/01/15 06:54:15;;;;;;;25.07;15.83;;;1.20;99.90;;;;;;5010811;28;20195;-56
2022/01/15 06:56:40;;;;;;;25.90;15.70;;;1.20;99.90;;;;;;5011396;28;20169;-52
2022/01/15 06:59:06;;;;;;;23.93;14.33;;;1.40;99.90;;;;;;5002669;28;20588;-56
2022/01/15 07:01:31;;;;;;;25.17;14.43;;;1.40;99.90;;;;;;4991593;28;20193;-58
2022/01/15 07:03:57;;;;;;;22.60;14.97;;;1.40;99.90;;;;;;4989737;28;20227;-53
2022/01/15 07:06:22;;;;;;;27.80;16.90;;;1.40;99.90;;;;;;4992817;28;20266;-60
2022/01/15 07:08:48;;;;;;;24.90;15.33;;;1.40;99.90;;;;;;5011380;28;20207;-54
2022/01/15 07:11:14;;;;;;;26.57;15.80;;;1.30;99.90;;;;;;5010885;28;20192;-55
2022/01/15 07:13:39;;;;;;;27.27;16.13;;;1.40;99.90;;;;;;5022802;28;20251;-60
2022/01/15 07:16:05;;;;;;;25.30;16.20;;;1.40;99.90;;;;;;5011588;28;20191;-57
2022/01/15 07:18:31;;;;;;;28.90;16.40;;;1.50;99.90;;;;;;5011902;28;20184;-58
2022/01/15 07:20:57;;;;;;;27.17;16.23;;;1.40;99.90;;;;;;5011051;28;20279;-57
2022/01/15 07:23:22;;;;;;;26.50;15.93;;;1.40;99.90;;;;;;5010663;28;20502;-56
2022/01/15 07:25:48;;;;;;;31.20;18.37;;;1.40;99.90;;;;;;5020571;28;20179;-60
2022/01/15 07:28:13;;;;;;;27.63;16.53;;;1.50;99.90;;;;;;5032348;28;20203;-58
2022/01/15 07:30:39;;;;;;;30.50;18.37;;;1.50;99.90;;;;;;5032636;28;20194;-56
2022/01/15 07:33:05;;;;;;;26.47;16.97;;;1.50;99.90;;;;;;5014759;28;20173;-59
2022/01/15 07:35:30;;;;;;;28.47;17.27;;;1.70;99.90;;;;;;5013792;28;20751;-61
2022/01/15 07:37:56;;;;;;;31.27;17.37;;;1.70;99.90;;;;;;5030625;28;20187;-57
2022/01/15 07:40:22;;;;;;;26.67;16.83;;;1.60;99.90;;;;;;5018913;28;20561;-57
2022/01/15 07:42:48;;;;;;;28.17;16.60;;;1.50;99.90;;;;;;5014483;28;20181;-56
2022/01/15 07:45:15;;;;;;;28.47;16.47;;;1.40;99.90;;;;;;5017124;28;20184;-55
2022/01/15 07:47:41;;;;;;;30.13;17.73;;;1.50;99.90;;;;;;5041311;28;20238;-57
2022/01/15 07:50:10;;;;;;;29.30;16.40;;;1.40;99.90;;;;;;5034899;28;20549;-55
2022/01/15 07:52:36;;;;;;;30.23;17.50;;;1.40;99.90;;;;;;5033712;28;20438;-56
2022/01/15 07:55:03;;;;;;;25.23;16.30;;;1.40;99.90;;;;;;5033743;28;20915;-58
2022/01/15 07:57:28;;;;;;;25.20;15.43;;;1.30;99.90;;;;;;5034112;28;20180;-55
2022/01/15 07:59:54;;;;;;;24.40;15.50;;;1.40;99.90;;;;;;5015234;28;20431;-58
2022/01/15 08:02:20;;;;;;;25.90;15.63;;;1.30;99.90;;;;;;5019277;28;20202;-58
2022/01/15 08:04:45;;;;;;;27.33;16.13;;;1.10;99.90;;;;;;5022711;28;20180;-58
2022/01/15 08:07:11;;;;;;;28.33;17.70;;;1.00;99.90;;;;;;5019537;28;20207;-59
2022/01/15 08:09:38;;;;;;;28.87;16.07;;;0.80;99.90;;;;;;5033586;28;20518;-56
2022/01/15 08:12:04;;;;;;;29.07;16.83;;;0.70;99.90;;;;;;5033861;28;20203;-58
2022/01/15 08:14:30;;;;;;;25.90;16.77;;;0.80;99.90;;;;;;5033494;28;20407;-57
2022/01/15 08:16:55;;;;;;;31.43;17.97;;;0.90;99.90;;;;;;5033662;28;20433;-57
2022/01/15 08:19:21;;;;;;;29.17;16.10;;;1.00;99.90;;;;;;5016242;28;20522;-59
2022/01/15 08:21:46;;;;;;;26.40;16.43;;;0.90;99.90;;;;;;5033369;28;20298;-55
2022/01/15 08:24:12;;;;;;;31.23;18.00;;;0.80;99.90;;;;;;5033535;28;20234;-56
2022/01/15 08:26:38;;;;;;;32.13;17.20;;;0.60;99.90;;;;;;5033313;28;20172;-59
2022/01/15 08:29:04;;;;;;;33.63;18.73;;;0.60;99.90;;;;;;5033482;28;20164;-55
2022/01/15 08:31:30;;;;;;;29.90;16.47;;;0.60;99.90;;;;;;5033367;28;20188;-57
2022/01/15 08:33:55;;;;;;;37.50;18.70;;;2.00;99.90;;;;;;5033095;28;20606;-59
2022/01/15 08:36:22;;;;;;;30.40;17.73;;;0.80;99.90;;;;;;5033209;28;20434;-55
2022/01/15 08:38:47;;;;;;;26.37;16.60;;;0.80;99.90;;;;;;5014733;28;20176;-56
2022/01/15 08:41:14;;;;;;;33.47;19.70;;;1.00;99.90;;;;;;5032934;28;20918;-57
2022/01/15 08:43:41;;;;;;;30.30;18.27;;;1.20;99.90;;;;;;5032859;28;20168;-57
2022/01/15 08:46:06;;;;;;;28.33;16.97;;;1.40;99.90;;;;;;5033040;28;20415;-55
2022/01/15 08:48:32;;;;;;;28.30;18.00;;;1.50;99.90;;;;;;5032648;28;20458;-56
2022/01/15 08:50:57;;;;;;;29.50;17.73;;;1.60;99.90;;;;;;5033117;28;20211;-55
2022/01/15 08:53:23;;;;;;;30.93;19.07;;;1.60;99.90;;;;;;5033243;28;20187;-56
2022/01/15 08:55:49;;;;;;;28.60;17.47;;;1.70;99.90;;;;;;5033790;28;20168;-56
2022/01/15 08:58:14;;;;;;;27.10;16.80;;;1.80;99.90;;;;;;5032780;28;20504;-57
2022/01/15 09:00:41;;;;;;;29.37;17.97;;;1.90;99.90;;;;;;5032608;28;20188;-56
2022/01/15 09:03:07;;;;;;;28.40;17.97;;;1.90;99.90;;;;;;5032925;28;20172;-54
2022/01/15 09:05:36;;;;;;;33.03;19.10;;;1.90;99.90;;;;;;5032220;28;20473;-57
2022/01/15 09:08:04;;;;;;;30.90;19.37;;;1.90;99.90;;;;;;5029241;28;20455;-54
2022/01/15 09:10:29;;;;;;;33.10;16.03;;;2.00;99.90;;;;;;5015069;28;20434;-57
2022/01/15 09:12:55;;;;;;;23.00;14.37;;;2.00;99.90;;;;;;5013011;28;20412;-57
2022/01/15 09:15:21;;;;;;;20.07;13.27;;;1.90;99.90;;;;;;5012792;28;20172;-57
2022/01/15 09:17:47;;;;;;;26.30;16.60;;;2.00;99.90;;;;;;5012440;28;20180;-58
2022/01/15 09:20:13;;;;;;;23.97;15.23;;;1.90;99.90;;;;;;5013136;28;20439;-57
2022/01/15 09:22:39;;;;;;;28.67;16.17;;;2.00;99.90;;;;;;5012462;28;20195;-57
2022/01/15 09:25:05;;;;;;;30.20;19.90;;;1.90;99.90;;;;;;5012488;28;20403;-57
2022/01/15 09:30:16;;;;;;;16.93;11.70;;;2.10;99.90;;;;;;5012769;28;20427;-55
2022/01/15 09:32:44;;;;;;;22.00;14.73;;;2.10;99.90;;;;;;4995042;28;20998;-58
2022/01/15 09:35:11;;;;;;;24.43;15.63;;;2.20;99.90;;;;;;5012484;28;20183;-57
2022/01/15 09:37:37;;;;;;;29.10;17.67;;;2.30;99.90;;;;;;5012574;28;20407;-55
2022/01/15 09:40:04;;;;;;;23.07;14.87;;;2.40;99.90;;;;;;5012121;28;20765;-59
2022/01/15 09:42:30;;;;;;;22.57;14.40;;;2.50;99.90;;;;;;5012599;28;20573;-56
2022/01/15 09:44:56;;;;;;;25.67;16.70;;;2.70;99.90;;;;;;5011827;28;20169;-57
2022/01/15 09:47:22;;;;;;;24.47;15.43;;;2.70;99.90;;;;;;5015311;28;20196;-56
2022/01/15 09:49:49;;;;;;;24.90;15.83;;;2.60;99.90;;;;;;5017756;28;20163;-56
2022/01/15 09:52:16;;;;;;;30.20;16.43;;;2.60;99.90;;;;;;4997728;28;20242;-53
2022/01/15 09:54:42;;;;;;;26.23;15.23;;;2.50;99.90;;;;;;5027991;28;20226;-58
2022/01/15 09:57:08;;;;;;;23.03;15.13;;;2.50;99.90;;;;;;5016894;28;20164;-53
2022/01/15 09:59:33;;;;;;;25.33;14.90;;;2.50;99.90;;;;;;5022324;28;20324;-56
2022/01/15 10:02:02;;;;;;;23.90;14.43;;;3.40;99.90;;;;;;5023567;28;20203;-56
2022/01/15 10:04:31;;;;;;;22.30;14.30;;;2.30;99.90;;;;;;5017300;28;20266;-57
2022/01/15 10:07:27;;;;;;;23.97;15.43;;;2.20;99.90;;;;;;4998440;28;20235;-58
2022/01/15 10:09:54;;;;;;;25.23;15.10;;;2.20;99.90;;;;;;5030032;28;20245;-57
2022/01/15 10:12:30;;;;;;;39.17;17.47;;;2.10;99.90;;;;;;5031232;28;20172;-57
2022/01/15 10:15:05;;;;;;;25.17;15.63;;;2.00;99.90;;;;;;5031574;28;20395;-59
2022/01/15 10:17:33;;;;;;;24.60;15.30;;;1.90;99.90;;;;;;5031398;28;20206;-59
2022/01/15 10:20:01;;;;;;;22.47;14.63;;;1.80;99.90;;;;;;5031590;28;20176;-58
2022/01/15 10:22:31;;;;;;;23.50;15.53;;;1.80;99.90;;;;;;5031516;28;20237;-59
2022/01/15 10:24:56;;;;;;;33.40;16.20;;;2.00;99.90;;;;;;5031230;28;20407;-58
2022/01/15 10:27:26;;;;;;;25.63;16.10;;;2.10;99.90;;;;;;5031664;28;20539;-58
2022/01/15 10:29:56;;;;;;;23.10;15.43;;;2.30;99.90;;;;;;5031395;28;20541;-51
2022/01/15 10:32:22;;;;;;;25.43;16.40;;;2.60;99.90;;;;;;5032107;28;20164;-58
2022/01/15 10:34:48;;;;;;;28.83;17.20;;;2.60;99.90;;;;;;5031349;28;20559;-57
2022/01/15 10:37:18;;;;;;;24.93;15.93;;;2.80;99.90;;;;;;5031841;28;20176;-60
2022/01/15 10:39:56;;;;;;;26.73;16.23;;;3.00;99.90;;;;;;5031097;28;20716;-57
2022/01/15 10:42:23;;;;;;;24.50;15.70;;;3.30;99.90;;;;;;5031572;28;20186;-58
2022/01/15 10:44:51;;;;;;;26.43;16.50;;;3.50;99.90;;;;;;5031057;28;20175;-57
2022/01/15 10:47:18;;;;;;;23.03;15.03;;;3.60;99.90;;;;;;5031517;28;20192;-58
2022/01/15 10:49:45;;;;;;;23.03;15.43;;;3.50;99.90;;;;;;5031587;28;20178;-58
2022/01/15 10:52:10;;;;;;;24.27;15.90;;;3.50;99.90;;;;;;5031163;28;20188;-57
2022/01/15 10:55:15;;;;;;;25.53;15.90;;;3.40;99.90;;;;;;5030996;28;20186;-55
2022/01/15 10:57:52;;;;;;;25.80;15.80;;;3.50;99.90;;;;;;4931564;29;20185;-58
2022/01/15 11:00:30;;;;;;;26.47;17.50;;;3.50;99.90;;;;;;4932126;29;20195;-56
2022/01/15 11:03:01;;;;;;;45.37;21.77;;;3.60;99.90;;;;;;4932810;29;20215;-58
2022/01/15 11:05:31;;;;;;;27.40;17.03;;;3.70;99.90;;;;;;4935403;29;20576;-54
2022/01/15 11:08:18;;;;;;;26.43;17.43;;;3.70;99.90;;;;;;4935222;29;20619;-56
2022/01/15 11:10:48;;;;;;;29.30;18.73;;;3.80;99.90;;;;;;4922302;29;20210;-53
2022/01/15 11:13:17;;;;;;;29.03;19.87;;;3.90;99.90;;;;;;4923618;29;20241;-57
2022/01/15 11:15:51;;;;;;;35.10;18.40;;;3.90;99.90;;;;;;4926372;29;20195;-56
2022/01/15 11:18:20;;;;;;;26.20;17.17;;;3.80;99.90;;;;;;4933174;29;20210;-57
2022/01/15 11:20:55;;;;;;;29.70;19.43;;;3.70;99.90;;;;;;4933327;29;20210;-59
2022/01/15 11:23:22;;;;;;;29.30;19.20;;;3.60;99.90;;;;;;4933265;29;20185;-59
2022/01/15 11:25:50;;;;;;;27.77;18.37;;;3.60;99.90;;;;;;4916688;29;20191;-57
2022/01/15 11:28:18;;;;;;;27.47;18.17;;;3.60;99.90;;;;;;4966116;28;20303;-52
2022/01/15 11:30:45;;;;;;;29.27;18.77;;;3.70;99.90;;;;;;5010947;28;20189;-58
2022/01/15 11:33:11;;;;;;;30.13;19.77;;;3.90;99.90;;;;;;5011902;28;20196;-58
2022/01/15 11:35:45;;;;;;;28.90;18.80;;;3.60;99.90;;;;;;5025181;28;20831;-56
2022/01/15 11:38:31;;;;;;;28.47;18.13;;;3.90;99.90;;;;;;5033236;28;20696;-58
2022/01/15 11:40:57;;;;;;;32.00;20.00;;;3.90;99.90;;;;;;5033698;28;20195;-58
2022/01/15 11:43:25;;;;;;;29.43;19.10;;;4.20;99.90;;;;;;5033817;28;20679;-59
2022/01/15 11:45:56;;;;;;;25.83;18.00;;;4.60;99.90;;;;;;5033510;28;20705;-57
2022/01/15 11:48:23;;;;;;;24.57;17.10;;;4.80;99.90;;;;;;5033218;28;20191;-57
2022/01/15 11:51:13;;;;;;;24.63;17.10;;;5.10;99.90;;;;;;5033932;28;20604;-59
2022/01/15 11:53:54;;;;;;;30.70;19.57;;;5.20;99.90;;;;;;5033417;28;20172;-58
2022/01/15 11:56:39;;;;;;;26.07;17.67;;;5.00;99.90;;;;;;5033551;28;20202;-58
2022/01/15 11:59:23;;;;;;;29.83;19.60;;;4.70;99.90;;;;;;5033155;28;20166;-55
2022/01/15 12:01:48;;;;;;;29.03;19.63;;;4.80;99.90;;;;;;5033940;28;20653;-57
2022/01/15 12:04:36;;;;;;;28.00;19.17;;;4.70;99.90;;;;;;5033241;28;20176;-59
2022/01/15 12:07:04;;;;;;;31.43;19.93;;;4.80;99.90;;;;;;5034070;28;20535;-59
2022/01/15 12:09:34;;;;;;;28.60;18.80;;;4.70;99.90;;;;;;5033444;28;20199;-56
2022/01/15 12:12:30;;;;;;;32.60;20.60;;;4.60;99.90;;;;;;5034090;28;20184;-56
2022/01/15 12:14:56;;;;;;;29.60;19.70;;;4.50;99.90;;;;;;5033029;28;20171;-57
2022/01/15 12:17:23;;;;;;;41.40;21.13;;;4.50;99.90;;;;;;5020405;28;20681;-58
2022/01/15 12:19:50;;;;;;;27.70;19.20;;;4.60;99.90;;;;;;5024559;28;20710;-56
2022/01/15 12:22:39;;;;;;;38.87;21.23;;;4.60;99.90;;;;;;5023384;28;20561;-57
2022/01/15 12:25:11;;;;;;;37.10;19.87;;;4.70;99.90;;;;;;5019049;28;20171;-59
2022/01/15 12:27:38;;;;;;;50.70;21.40;;;4.70;99.90;;;;;;5020412;28;20207;-55
2022/01/15 12:30:16;;;;;;;29.17;19.67;;;4.80;99.90;;;;;;5014000;28;20199;-57
2022/01/15 12:32:44;;;;;;;29.60;19.67;;;4.80;99.90;;;;;;5010917;28;20263;-56
2022/01/15 12:35:15;;;;;;;31.10;20.40;;;4.80;99.90;;;;;;5013159;28;20251;-55
2022/01/15 12:38:03;;;;;;;28.50;18.87;;;4.60;99.90;;;;;;5013192;28;20242;-56
2022/01/15 12:40:47;;;;;;;28.83;19.20;;;4.60;99.90;;;;;;5013789;28;20564;-57
2022/01/15 12:43:16;;;;;;;30.57;20.20;;;4.70;99.90;;;;;;5012812;28;20180;-57
2022/01/15 12:45:44;;;;;;;29.07;19.27;;;4.90;99.90;;;;;;5013325;28;20177;-56
2022/01/15 12:48:15;;;;;;;27.77;18.80;;;5.10;99.90;;;;;;5012786;28;20196;-53
2022/01/15 12:50:46;;;;;;;30.87;20.77;;;5.30;99.90;;;;;;5013356;28;20271;-54
2022/01/15 12:53:12;;;;;;;26.70;18.07;;;5.40;99.90;;;;;;5012651;28;20226;-55
2022/01/15 12:55:38;;;;;;;26.50;18.67;;;5.60;99.90;;;;;;5012650;28;20187;-58
2022/01/15 12:58:06;;;;;;;26.47;18.97;;;5.70;99.90;;;;;;5012986;28;20176;-55
2022/01/15 13:00:35;;;;;;;27.03;19.37;;;5.80;99.90;;;;;;5012609;28;20279;-55
2022/01/15 13:03:06;;;;;;;29.17;19.57;;;5.80;99.90;;;;;;5013209;28;20169;-57